Weather Cam  Weather Cam


Weather Cam 2  Weather Cam 2


Thunder radar more information blitzortung!


Rain radar more information rain snow radar


Visit our other weather sites:

Template documentation
and downloads

And another site


You find our weather info also at:

WeatherCloud

Weather Underground

Northwest Weather Network

AWEKAS

Citizen Weather Observer Program (CWOP)



There are no active watches, warnings or advisories

Nearby METAR Reports

   
KCOE - Coeur d'Alene, ID
Updated: Sep 23 2018 2:56 pm
Overcast  
Overcast  
   Wind: West 10.4 mph
Wind: West 10.4 mph
Temperature: 59°F
Dew Point: 39.2°F
Humidity: 48%
Barometer: 30.05 inHg
Clouds: Overcast
Visibility: 10 mi
Cloud details: Overcast 1524 m
KCOE 232156Z AUTO 26009KT 10SM OVC050 15/04 A3005 RMK AO2 SLP192 T01500039 PNO $
KGEG - Spokane, WA
Updated: Sep 23 2018 2:53 pm
Mostly Cloudy  
Mostly Cloudy  
   Wind: varies 5.8 mph
Wind: varies 5.8 mph
Temperature: 60.8°F
Dew Point: 35.6°F
Humidity: 39%
Barometer: 30.03 inHg
Clouds: Mostly Cloudy
Visibility: 10 mi
Cloud details: Mostly Cloudy 1524 m,
Mostly Cloudy 2134 m,
Mostly Cloudy 4572 m
KGEG 232153Z VRB05KT 10SM BKN050 BKN070 BKN150 16/02 A3003 RMK AO2 SLP167 T01610022
KSFF - Spokane Felts
Updated: Sep 23 2018 2:53 pm
Overcast  
Overcast  
   Wind: SW 6.9 mph
Wind: SW 6.9 mph
Temperature: 62.6°F
Dew Point: 37.4°F
Humidity: 39%
Barometer: 30.04 inHg
Clouds: Overcast
Visibility: 10 mi
Cloud details: Mostly Cloudy 1676 m,
Overcast 2134 m
KSFF 232153Z 23006KT 10SM BKN055 OVC070 17/03 A3004 RMK AO2 SLP167 T01720028
KSKA - Fairchild AFB
Updated: Sep 18 2018 12:56 pm
NOT Current
Clear  
Clear  
   Wind: ENE 4.6 mph
Wind: ENE 4.6 mph
Temperature: 66.2°F
Dew Point: 32°F
Humidity: 28%
Barometer: 30.03 inHg
Clouds: Clear
Visibility: 10 mi
Cloud details: Clear m
KSKA 181956Z AUTO 06004KT 10SM CLR 19/00 A3003 RMK AO2 SLP172 T01871002 PWINO $
KSZT - Sandpoint, ID
Updated: Sep 23 2018 3:15 pm
Overcast  
Overcast  
   Wind: South 5.8 mph
Wind: South 5.8 mph
Temperature: 57.2°F
Dew Point: 42.8°F
Humidity: 59%
Barometer: 30.02 inHg
Clouds: Overcast
Visibility: 10 mi
Cloud details: Partly Cloudy 1219 m,
Mostly Cloudy 1433 m,
Overcast 1829 m
KSZT 232215Z AUTO 18005KT 10SM SCT040 BKN047 OVC060 14/06 A3002 RMK AO2
KSEA - Sea-Tac, WA
Updated: Sep 23 2018 2:53 pm
Mostly Cloudy  
Mostly Cloudy  
   Wind: varies 3.5 mph
Wind: varies 3.5 mph
Temperature: 64.4°F
Dew Point: 41°F
Humidity: 43%
Barometer: 30.17 inHg
Clouds: Mostly Cloudy
Visibility: 10 mi
Cloud details: Few Clouds 1250 m,
Partly Cloudy 1829 m,
Mostly Cloudy 6096 m
KSEA 232153Z VRB03KT 10SM FEW041 SCT060 BKN200 18/05 A3017 RMK AO2 SLP221 T01780050 $

Script developed by  Saratoga-weather.org Adapted for the template by  Weerstation Leuven